sensor_id;sensor_type;location;lat;lon;timestamp;temperature;humidity
34147;DHT22;20423;49.448;9.056;2023-11-25T00:02:07;0.40;99.90
34147;DHT22;20423;49.448;9.056;2023-11-25T00:04:33;0.40;99.90
34147;DHT22;20423;49.448;9.056;2023-11-25T00:07:05;0.40;99.90
34147;DHT22;20423;49.448;9.056;2023-11-25T00:09:31;0.40;99.90
34147;DHT22;20423;49.448;9.056;2023-11-25T00:11:57;0.40;99.90
34147;DHT22;20423;49.448;9.056;2023-11-25T00:14:22;0.40;99.90
34147;DHT22;20423;49.448;9.056;2023-11-25T00:16:48;0.40;99.90
34147;DHT22;20423;49.448;9.056;2023-11-25T00:19:19;0.40;99.90
34147;DHT22;20423;49.448;9.056;2023-11-25T00:21:45;0.40;99.90
34147;DHT22;20423;49.448;9.056;2023-11-25T00:24:11;0.40;99.90
34147;DHT22;20423;49.448;9.056;2023-11-25T00:26:59;0.40;99.90
34147;DHT22;20423;49.448;9.056;2023-11-25T00:29:43;0.40;99.90
34147;DHT22;20423;49.448;9.056;2023-11-25T00:32:09;0.40;99.90
34147;DHT22;20423;49.448;9.056;2023-11-25T00:34:36;0.30;99.90
34147;DHT22;20423;49.448;9.056;2023-11-25T00:37:36;0.30;99.90
34147;DHT22;20423;49.448;9.056;2023-11-25T00:40:03;0.20;99.90
34147;DHT22;20423;49.448;9.056;2023-11-25T00:42:38;0.20;99.90
34147;DHT22;20423;49.448;9.056;2023-11-25T00:45:08;0.20;99.90
34147;DHT22;20423;49.448;9.056;2023-11-25T00:47:37;0.20;99.90
34147;DHT22;20423;49.448;9.056;2023-11-25T00:50:06;0.10;99.90
34147;DHT22;20423;49.448;9.056;2023-11-25T00:52:54;0.10;99.90
34147;DHT22;20423;49.448;9.056;2023-11-25T00:55:45;0.10;99.90
34147;DHT22;20423;49.448;9.056;2023-11-25T00:58:12;0.10;99.90
34147;DHT22;20423;49.448;9.056;2023-11-25T01:00:37;0.10;99.90
34147;DHT22;20423;49.448;9.056;2023-11-25T01:03:03;0.10;99.90
34147;DHT22;20423;49.448;9.056;2023-11-25T01:05:29;0.00;99.90
34147;DHT22;20423;49.448;9.056;2023-11-25T01:07:54;0.00;99.90
34147;DHT22;20423;49.448;9.056;2023-11-25T01:10:20;0.00;99.90
34147;DHT22;20423;49.448;9.056;2023-11-25T01:12:46;-0.10;99.90
34147;DHT22;20423;49.448;9.056;2023-11-25T01:15:12;-0.10;99.90
34147;DHT22;20423;49.448;9.056;2023-11-25T01:17:38;-0.10;99.90
34147;DHT22;20423;49.448;9.056;2023-11-25T01:20:04;-0.10;99.90
34147;DHT22;20423;49.448;9.056;2023-11-25T01:22:31;-0.10;99.90
34147;DHT22;20423;49.448;9.056;2023-11-25T01:24:57;-0.20;99.90
34147;DHT22;20423;49.448;9.056;2023-11-25T01:27:22;-0.20;99.90
34147;DHT22;20423;49.448;9.056;2023-11-25T01:29:49;-0.20;99.90
34147;DHT22;20423;49.448;9.056;2023-11-25T01:32:15;-0.20;99.90
34147;DHT22;20423;49.448;9.056;2023-11-25T01:34:41;-0.20;99.90
34147;DHT22;20423;49.448;9.056;2023-11-25T01:37:07;-0.30;99.90
34147;DHT22;20423;49.448;9.056;2023-11-25T01:39:33;-0.20;99.90
34147;DHT22;20423;49.448;9.056;2023-11-25T01:42:00;-0.30;99.90
34147;DHT22;20423;49.448;9.056;2023-11-25T01:44:26;-0.40;99.90
34147;DHT22;20423;49.448;9.056;2023-11-25T01:46:52;-0.40;99.90
34147;DHT22;20423;49.448;9.056;2023-11-25T01:49:19;-0.30;99.90
34147;DHT22;20423;49.448;9.056;2023-11-25T01:51:46;-0.40;99.90
34147;DHT22;20423;49.448;9.056;2023-11-25T01:54:15;-0.30;99.90
34147;DHT22;20423;49.448;9.056;2023-11-25T01:56:47;-0.20;99.90
34147;DHT22;20423;49.448;9.056;2023-11-25T01:59:14;-0.20;99.90
34147;DHT22;20423;49.448;9.056;2023-11-25T02:01:56;-0.20;99.90
34147;DHT22;20423;49.448;9.056;2023-11-25T02:04:23;-0.30;99.90
34147;DHT22;20423;49.448;9.056;2023-11-25T02:06:49;-0.30;99.90
34147;DHT22;20423;49.448;9.056;2023-11-25T02:09:18;-0.40;99.90
34147;DHT22;20423;49.448;9.056;2023-11-25T02:11:58;-0.40;99.90
34147;DHT22;20423;49.448;9.056;2023-11-25T02:14:24;-0.40;99.90
34147;DHT22;20423;49.448;9.056;2023-11-25T02:16:50;-0.40;99.90
34147;DHT22;20423;49.448;9.056;2023-11-25T02:19:21;-0.40;99.90
34147;DHT22;20423;49.448;9.056;2023-11-25T02:21:47;-0.30;99.90
34147;DHT22;20423;49.448;9.056;2023-11-25T02:24:13;-0.40;99.90
34147;DHT22;20423;49.448;9.056;2023-11-25T02:27:02;-0.40;99.90
34147;DHT22;20423;49.448;9.056;2023-11-25T02:29:31;-0.40;99.90
34147;DHT22;20423;49.448;9.056;2023-11-25T02:31:58;-0.50;99.90
34147;DHT22;20423;49.448;9.056;2023-11-25T02:34:25;-0.40;99.90
34147;DHT22;20423;49.448;9.056;2023-11-25T02:37:06;-0.40;99.90
34147;DHT22;20423;49.448;9.056;2023-11-25T02:39:32;-0.50;99.90
34147;DHT22;20423;49.448;9.056;2023-11-25T02:41:59;-0.50;99.90
34147;DHT22;20423;49.448;9.056;2023-11-25T02:44:25;-0.50;99.90
34147;DHT22;20423;49.448;9.056;2023-11-25T02:46:52;-0.60;99.90
34147;DHT22;20423;49.448;9.056;2023-11-25T02:49:19;-0.60;99.90
34147;DHT22;20423;49.448;9.056;2023-11-25T02:51:52;-0.60;99.90
34147;DHT22;20423;49.448;9.056;2023-11-25T02:54:21;-0.70;99.90
34147;DHT22;20423;49.448;9.056;2023-11-25T02:56:53;-0.70;99.90
34147;DHT22;20423;49.448;9.056;2023-11-25T02:59:19;-0.70;99.90
34147;DHT22;20423;49.448;9.056;2023-11-25T03:01:44;-0.70;99.90
34147;DHT22;20423;49.448;9.056;2023-11-25T03:04:20;-0.80;99.90
34147;DHT22;20423;49.448;9.056;2023-11-25T03:06:46;-0.80;99.90
34147;DHT22;20423;49.448;9.056;2023-11-25T03:09:20;-0.90;99.90
34147;DHT22;20423;49.448;9.056;2023-11-25T03:11:46;-1.00;99.90
34147;DHT22;20423;49.448;9.056;2023-11-25T03:14:12;-1.00;99.90
34147;DHT22;20423;49.448;9.056;2023-11-25T03:16:41;-1.00;99.90
34147;DHT22;20423;49.448;9.056;2023-11-25T03:19:07;-1.00;99.90
34147;DHT22;20423;49.448;9.056;2023-11-25T03:21:35;-1.00;99.90
34147;DHT22;20423;49.448;9.056;2023-11-25T03:24:01;-1.00;99.90
34147;DHT22;20423;49.448;9.056;2023-11-25T03:26:26;-1.00;99.90
34147;DHT22;20423;49.448;9.056;2023-11-25T03:28:53;-1.00;99.90
34147;DHT22;20423;49.448;9.056;2023-11-25T03:31:19;-1.10;99.90
34147;DHT22;20423;49.448;9.056;2023-11-25T03:33:44;-1.10;99.90
34147;DHT22;20423;49.448;9.056;2023-11-25T03:36:10;-1.10;99.90
34147;DHT22;20423;49.448;9.056;2023-11-25T03:38:36;-1.00;99.90
34147;DHT22;20423;49.448;9.056;2023-11-25T03:41:02;-1.10;99.90
34147;DHT22;20423;49.448;9.056;2023-11-25T03:43:28;-1.00;99.90
34147;DHT22;20423;49.448;9.056;2023-11-25T03:45:53;-1.00;99.90
34147;DHT22;20423;49.448;9.056;2023-11-25T03:48:19;-0.90;99.90
34147;DHT22;20423;49.448;9.056;2023-11-25T03:50:44;-1.00;99.90
34147;DHT22;20423;49.448;9.056;2023-11-25T03:53:13;-0.90;99.90
34147;DHT22;20423;49.448;9.056;2023-11-25T03:55:39;-0.90;99.90
34147;DHT22;20423;49.448;9.056;2023-11-25T03:58:05;-1.00;99.90
34147;DHT22;20423;49.448;9.056;2023-11-25T04:00:31;-0.90;99.90
34147;DHT22;20423;49.448;9.056;2023-11-25T04:03:22;-1.00;99.90
34147;DHT22;20423;49.448;9.056;2023-11-25T04:05:48;-1.00;99.90
34147;DHT22;20423;49.448;9.056;2023-11-25T04:08:13;-1.00;99.90
34147;DHT22;20423;49.448;9.056;2023-11-25T04:13:59;-1.00;99.90
34147;DHT22;20423;49.448;9.056;2023-11-25T04:16:25;-1.00;99.90
34147;DHT22;20423;49.448;9.056;2023-11-25T04:18:50;-1.10;99.90
34147;DHT22;20423;49.448;9.056;2023-11-25T04:21:18;-1.10;99.90
34147;DHT22;20423;49.448;9.056;2023-11-25T04:23:51;-1.10;99.90
34147;DHT22;20423;49.448;9.056;2023-11-25T04:26:23;-1.20;99.90
34147;DHT22;20423;49.448;9.056;2023-11-25T04:28:50;-1.20;99.90
34147;DHT22;20423;49.448;9.056;2023-11-25T04:31:16;-1.20;99.90
34147;DHT22;20423;49.448;9.056;2023-11-25T04:33:42;-1.20;99.90
34147;DHT22;20423;49.448;9.056;2023-11-25T04:36:08;-1.20;99.90
34147;DHT22;20423;49.448;9.056;2023-11-25T04:38:38;-1.30;99.90
34147;DHT22;20423;49.448;9.056;2023-11-25T04:41:03;-1.30;99.90
34147;DHT22;20423;49.448;9.056;2023-11-25T04:43:29;-1.30;99.90
34147;DHT22;20423;49.448;9.056;2023-11-25T04:45:55;-1.30;99.90
34147;DHT22;20423;49.448;9.056;2023-11-25T04:48:28;-1.30;99.90
34147;DHT22;20423;49.448;9.056;2023-11-25T04:50:54;-1.20;99.90
34147;DHT22;20423;49.448;9.056;2023-11-25T04:53:19;-1.20;99.90
34147;DHT22;20423;49.448;9.056;2023-11-25T04:55:46;-1.20;99.90
34147;DHT22;20423;49.448;9.056;2023-11-25T04:58:12;-1.10;99.90
34147;DHT22;20423;49.448;9.056;2023-11-25T05:00:38;-1.10;99.90
34147;DHT22;20423;49.448;9.056;2023-11-25T05:03:03;-1.10;99.90
34147;DHT22;20423;49.448;9.056;2023-11-25T05:05:30;-1.10;99.90
34147;DHT22;20423;49.448;9.056;2023-11-25T05:07:57;-1.20;99.90
34147;DHT22;20423;49.448;9.056;2023-11-25T05:10:23;-1.20;99.90
34147;DHT22;20423;49.448;9.056;2023-11-25T05:12:49;-1.20;99.90
34147;DHT22;20423;49.448;9.056;2023-11-25T05:15:16;-1.30;99.90
34147;DHT22;20423;49.448;9.056;2023-11-25T05:17:43;-1.30;99.90
34147;DHT22;20423;49.448;9.056;2023-11-25T05:20:09;-1.20;99.90
34147;DHT22;20423;49.448;9.056;2023-11-25T05:22:38;-1.20;99.90
34147;DHT22;20423;49.448;9.056;2023-11-25T05:25:04;-1.30;99.90
34147;DHT22;20423;49.448;9.056;2023-11-25T05:27:31;-1.30;99.90
34147;DHT22;20423;49.448;9.056;2023-11-25T05:29:57;-1.30;99.90
34147;DHT22;20423;49.448;9.056;2023-11-25T05:32:23;-1.30;99.90
34147;DHT22;20423;49.448;9.056;2023-11-25T05:34:48;-1.30;99.90
34147;DHT22;20423;49.448;9.056;2023-11-25T05:37:43;-1.30;99.90
34147;DHT22;20423;49.448;9.056;2023-11-25T05:40:09;-1.40;99.90
34147;DHT22;20423;49.448;9.056;2023-11-25T05:42:37;-1.40;99.90
34147;DHT22;20423;49.448;9.056;2023-11-25T05:45:07;-1.30;99.90
34147;DHT22;20423;49.448;9.056;2023-11-25T05:47:38;-1.30;99.90
34147;DHT22;20423;49.448;9.056;2023-11-25T05:50:05;-1.30;99.90
34147;DHT22;20423;49.448;9.056;2023-11-25T05:52:32;-1.30;99.90
34147;DHT22;20423;49.448;9.056;2023-11-25T05:54:57;-1.20;99.90
34147;DHT22;20423;49.448;9.056;2023-11-25T05:57:23;-1.20;99.90
34147;DHT22;20423;49.448;9.056;2023-11-25T06:00:04;-1.20;99.90
34147;DHT22;20423;49.448;9.056;2023-11-25T06:02:38;-1.10;99.90
34147;DHT22;20423;49.448;9.056;2023-11-25T06:05:04;-1.10;99.90
34147;DHT22;20423;49.448;9.056;2023-11-25T06:07:29;-1.00;99.90
34147;DHT22;20423;49.448;9.056;2023-11-25T06:09:55;-0.90;99.90
34147;DHT22;20423;49.448;9.056;2023-11-25T06:12:21;-0.80;99.90
34147;DHT22;20423;49.448;9.056;2023-11-25T06:14:46;-0.80;99.90
34147;DHT22;20423;49.448;9.056;2023-11-25T06:17:14;-0.70;99.90
34147;DHT22;20423;49.448;9.056;2023-11-25T06:19:41;-0.60;99.90
34147;DHT22;20423;49.448;9.056;2023-11-25T06:22:31;-0.60;99.90
34147;DHT22;20423;49.448;9.056;2023-11-25T06:24:57;-0.60;99.90
34147;DHT22;20423;49.448;9.056;2023-11-25T06:27:24;-0.50;99.90
34147;DHT22;20423;49.448;9.056;2023-11-25T06:29:50;-0.50;99.90
34147;DHT22;20423;49.448;9.056;2023-11-25T06:32:16;-0.50;99.90
34147;DHT22;20423;49.448;9.056;2023-11-25T06:34:42;-0.50;99.90
34147;DHT22;20423;49.448;9.056;2023-11-25T06:37:07;-0.50;99.90
34147;DHT22;20423;49.448;9.056;2023-11-25T06:39:33;-0.50;99.90
34147;DHT22;20423;49.448;9.056;2023-11-25T06:41:59;-0.40;99.90
34147;DHT22;20423;49.448;9.056;2023-11-25T06:44:26;-0.40;99.90
34147;DHT22;20423;49.448;9.056;2023-11-25T06:46:53;-0.40;99.90
34147;DHT22;20423;49.448;9.056;2023-11-25T06:49:18;-0.40;99.90
34147;DHT22;20423;49.448;9.056;2023-11-25T06:51:44;-0.40;99.90
34147;DHT22;20423;49.448;9.056;2023-11-25T06:54:10;-0.40;99.90
34147;DHT22;20423;49.448;9.056;2023-11-25T06:56:37;-0.40;99.90
34147;DHT22;20423;49.448;9.056;2023-11-25T06:59:08;-0.30;99.90
34147;DHT22;20423;49.448;9.056;2023-11-25T07:01:34;-0.30;99.90
34147;DHT22;20423;49.448;9.056;2023-11-25T07:04:03;-0.30;99.90
34147;DHT22;20423;49.448;9.056;2023-11-25T07:06:30;-0.20;99.90
34147;DHT22;20423;49.448;9.056;2023-11-25T07:08:56;-0.20;99.90
34147;DHT22;20423;49.448;9.056;2023-11-25T07:11:27;-0.20;99.90
34147;DHT22;20423;49.448;9.056;2023-11-25T07:13:53;-0.20;99.90
34147;DHT22;20423;49.448;9.056;2023-11-25T07:16:20;-0.10;99.90
34147;DHT22;20423;49.448;9.056;2023-11-25T07:18:48;-0.20;99.90
34147;DHT22;20423;49.448;9.056;2023-11-25T07:21:15;-0.20;99.90
34147;DHT22;20423;49.448;9.056;2023-11-25T07:23:41;-0.20;99.90
34147;DHT22;20423;49.448;9.056;2023-11-25T07:26:09;-0.20;99.90
34147;DHT22;20423;49.448;9.056;2023-11-25T07:28:37;-0.20;99.90
34147;DHT22;20423;49.448;9.056;2023-11-25T07:31:04;-0.20;99.90
34147;DHT22;20423;49.448;9.056;2023-11-25T07:33:31;-0.20;99.90
34147;DHT22;20423;49.448;9.056;2023-11-25T07:35:56;-0.20;99.90
34147;DHT22;20423;49.448;9.056;2023-11-25T07:38:23;-0.20;99.90
34147;DHT22;20423;49.448;9.056;2023-11-25T07:40:49;-0.20;99.90
34147;DHT22;20423;49.448;9.056;2023-11-25T07:43:15;-0.10;99.90
34147;DHT22;20423;49.448;9.056;2023-11-25T07:45:41;-0.20;99.90
34147;DHT22;20423;49.448;9.056;2023-11-25T07:48:07;-0.20;99.90
34147;DHT22;20423;49.448;9.056;2023-11-25T07:50:34;-0.20;99.90
34147;DHT22;20423;49.448;9.056;2023-11-25T07:53:01;-0.20;99.90
34147;DHT22;20423;49.448;9.056;2023-11-25T07:55:27;-0.20;99.90
34147;DHT22;20423;49.448;9.056;2023-11-25T07:57:53;-0.20;99.90
34147;DHT22;20423;49.448;9.056;2023-11-25T08:00:18;-0.20;99.90
34147;DHT22;20423;49.448;9.056;2023-11-25T08:02:46;-0.10;99.90
34147;DHT22;20423;49.448;9.056;2023-11-25T08:05:15;-0.10;99.90
34147;DHT22;20423;49.448;9.056;2023-11-25T08:07:51;-0.10;99.90
34147;DHT22;20423;49.448;9.056;2023-11-25T08:10:19;0.10;99.90
34147;DHT22;20423;49.448;9.056;2023-11-25T08:12:45;0.20;99.90
34147;DHT22;20423;49.448;9.056;2023-11-25T08:15:12;0.30;99.90
34147;DHT22;20423;49.448;9.056;2023-11-25T08:17:40;0.30;99.90
34147;DHT22;20423;49.448;9.056;2023-11-25T08:20:07;0.30;99.90
34147;DHT22;20423;49.448;9.056;2023-11-25T08:22:36;0.30;99.90
34147;DHT22;20423;49.448;9.056;2023-11-25T08:25:02;0.30;99.90
34147;DHT22;20423;49.448;9.056;2023-11-25T08:27:33;0.30;99.90
34147;DHT22;20423;49.448;9.056;2023-11-25T08:29:59;0.40;99.90
34147;DHT22;20423;49.448;9.056;2023-11-25T08:32:25;0.30;99.90
34147;DHT22;20423;49.448;9.056;2023-11-25T08:34:51;0.40;99.90
34147;DHT22;20423;49.448;9.056;2023-11-25T08:37:17;0.50;99.90
34147;DHT22;20423;49.448;9.056;2023-11-25T08:39:43;0.60;99.90
34147;DHT22;20423;49.448;9.056;2023-11-25T08:42:11;0.60;99.90
34147;DHT22;20423;49.448;9.056;2023-11-25T08:44:39;0.70;99.90
34147;DHT22;20423;49.448;9.056;2023-11-25T08:47:10;0.70;99.90
34147;DHT22;20423;49.448;9.056;2023-11-25T08:49:36;0.80;99.90
34147;DHT22;20423;49.448;9.056;2023-11-25T08:52:02;0.90;99.90
34147;DHT22;20423;49.448;9.056;2023-11-25T08:54:28;0.90;99.90
34147;DHT22;20423;49.448;9.056;2023-11-25T08:57:02;1.00;99.90
34147;DHT22;20423;49.448;9.056;2023-11-25T08:59:28;1.10;99.90
34147;DHT22;20423;49.448;9.056;2023-11-25T09:01:54;1.10;99.90
34147;DHT22;20423;49.448;9.056;2023-11-25T09:04:23;1.20;99.90
34147;DHT22;20423;49.448;9.056;2023-11-25T09:06:51;1.30;99.90
34147;DHT22;20423;49.448;9.056;2023-11-25T09:09:18;1.30;99.90
34147;DHT22;20423;49.448;9.056;2023-11-25T09:11:45;1.30;99.90
34147;DHT22;20423;49.448;9.056;2023-11-25T09:14:11;1.30;99.90
34147;DHT22;20423;49.448;9.056;2023-11-25T09:16:37;1.20;99.90
34147;DHT22;20423;49.448;9.056;2023-11-25T09:19:03;1.30;99.90
34147;DHT22;20423;49.448;9.056;2023-11-25T09:21:30;1.50;99.90
34147;DHT22;20423;49.448;9.056;2023-11-25T09:23:55;1.70;99.90
34147;DHT22;20423;49.448;9.056;2023-11-25T09:26:22;1.70;99.90
34147;DHT22;20423;49.448;9.056;2023-11-25T09:28:50;1.60;99.90
34147;DHT22;20423;49.448;9.056;2023-11-25T09:31:34;1.50;99.90
34147;DHT22;20423;49.448;9.056;2023-11-25T09:34:00;1.40;99.90
34147;DHT22;20423;49.448;9.056;2023-11-25T09:36:29;1.30;99.90
34147;DHT22;20423;49.448;9.056;2023-11-25T09:38:55;1.20;99.90
34147;DHT22;20423;49.448;9.056;2023-11-25T09:41:22;1.10;99.90
34147;DHT22;20423;49.448;9.056;2023-11-25T09:43:47;1.10;99.90
34147;DHT22;20423;49.448;9.056;2023-11-25T09:46:14;1.10;99.90
34147;DHT22;20423;49.448;9.056;2023-11-25T09:48:41;1.10;99.90
34147;DHT22;20423;49.448;9.056;2023-11-25T09:51:08;1.30;99.90
34147;DHT22;20423;49.448;9.056;2023-11-25T09:53:36;1.30;99.90
34147;DHT22;20423;49.448;9.056;2023-11-25T09:56:06;1.40;99.90
34147;DHT22;20423;49.448;9.056;2023-11-25T09:58:33;1.30;99.90
34147;DHT22;20423;49.448;9.056;2023-11-25T10:01:00;1.20;99.90
34147;DHT22;20423;49.448;9.056;2023-11-25T10:03:33;1.30;99.90
34147;DHT22;20423;49.448;9.056;2023-11-25T10:06:00;1.30;99.90
34147;DHT22;20423;49.448;9.056;2023-11-25T10:08:26;1.40;99.90
34147;DHT22;20423;49.448;9.056;2023-11-25T10:11:03;1.40;99.90
34147;DHT22;20423;49.448;9.056;2023-11-25T10:13:40;1.40;99.90
34147;DHT22;20423;49.448;9.056;2023-11-25T10:16:08;1.50;99.90
34147;DHT22;20423;49.448;9.056;2023-11-25T10:18:38;1.40;99.90
34147;DHT22;20423;49.448;9.056;2023-11-25T10:21:07;1.30;99.90
34147;DHT22;20423;49.448;9.056;2023-11-25T10:23:35;1.30;99.90
34147;DHT22;20423;49.448;9.056;2023-11-25T10:26:15;1.20;99.90
34147;DHT22;20423;49.448;9.056;2023-11-25T10:28:45;1.10;99.90
34147;DHT22;20423;49.448;9.056;2023-11-25T10:31:13;0.90;99.90
34147;DHT22;20423;49.448;9.056;2023-11-25T10:33:42;0.90;99.90
34147;DHT22;20423;49.448;9.056;2023-11-25T10:36:09;0.90;99.90
34147;DHT22;20423;49.448;9.056;2023-11-25T10:38:39;0.80;99.90
34147;DHT22;20423;49.448;9.056;2023-11-25T10:41:05;0.80;99.90
34147;DHT22;20423;49.448;9.056;2023-11-25T10:43:32;0.70;99.90
34147;DHT22;20423;49.448;9.056;2023-11-25T10:46:05;0.60;99.90
34147;DHT22;20423;49.448;9.056;2023-11-25T10:48:35;0.70;99.90
34147;DHT22;20423;49.448;9.056;2023-11-25T10:51:07;0.60;99.90
34147;DHT22;20423;49.448;9.056;2023-11-25T10:53:38;0.70;99.90
34147;DHT22;20423;49.448;9.056;2023-11-25T10:56:06;0.70;99.90
34147;DHT22;20423;49.448;9.056;2023-11-25T10:58:34;0.70;99.90
34147;DHT22;20423;49.448;9.056;2023-11-25T11:01:01;0.60;99.90
34147;DHT22;20423;49.448;9.056;2023-11-25T11:03:43;0.70;99.90
34147;DHT22;20423;49.448;9.056;2023-11-25T11:06:20;0.70;99.90
34147;DHT22;20423;49.448;9.056;2023-11-25T11:08:49;0.60;99.90
34147;DHT22;20423;49.448;9.056;2023-11-25T11:11:19;0.60;99.90
34147;DHT22;20423;49.448;9.056;2023-11-25T11:14:21;0.70;99.90
34147;DHT22;20423;49.448;9.056;2023-11-25T11:19:32;0.70;99.90
34147;DHT22;20423;49.448;9.056;2023-11-25T11:22:04;0.80;99.90
34147;DHT22;20423;49.448;9.056;2023-11-25T11:27:42;0.70;99.90
34147;DHT22;20423;49.448;9.056;2023-11-25T11:30:26;0.70;99.90
34147;DHT22;20423;49.448;9.056;2023-11-25T11:32:54;0.60;99.90
34147;DHT22;20423;49.448;9.056;2023-11-25T11:35:34;0.50;99.90
34147;DHT22;20423;49.448;9.056;2023-11-25T11:38:00;0.50;99.90
34147;DHT22;20423;49.448;9.056;2023-11-25T11:40:26;0.50;99.90
34147;DHT22;20423;49.448;9.056;2023-11-25T11:42:54;0.50;99.90
34147;DHT22;20423;49.448;9.056;2023-11-25T11:45:21;0.50;99.90
34147;DHT22;20423;49.448;9.056;2023-11-25T11:47:55;0.50;99.90
34147;DHT22;20423;49.448;9.056;2023-11-25T11:50:29;0.50;99.90
34147;DHT22;20423;49.448;9.056;2023-11-25T11:55:38;0.50;99.90
34147;DHT22;20423;49.448;9.056;2023-11-25T11:58:14;0.50;99.90
34147;DHT22;20423;49.448;9.056;2023-11-25T12:00:52;0.50;99.90
34147;DHT22;20423;49.448;9.056;2023-11-25T12:03:18;0.60;99.90
34147;DHT22;20423;49.448;9.056;2023-11-25T12:05:44;0.60;99.90
34147;DHT22;20423;49.448;9.056;2023-11-25T12:08:10;0.60;99.90
34147;DHT22;20423;49.448;9.056;2023-11-25T12:10:37;0.60;99.90
34147;DHT22;20423;49.448;9.056;2023-11-25T12:13:03;0.60;99.90
34147;DHT22;20423;49.448;9.056;2023-11-25T12:15:30;0.60;99.90
34147;DHT22;20423;49.448;9.056;2023-11-25T12:17:56;0.60;99.90
34147;DHT22;20423;49.448;9.056;2023-11-25T12:20:36;0.70;99.90
34147;DHT22;20423;49.448;9.056;2023-11-25T12:23:06;0.60;99.90
34147;DHT22;20423;49.448;9.056;2023-11-25T12:25:35;0.60;99.90
34147;DHT22;20423;49.448;9.056;2023-11-25T12:28:13;0.60;99.90
34147;DHT22;20423;49.448;9.056;2023-11-25T12:30:40;0.70;99.90
34147;DHT22;20423;49.448;9.056;2023-11-25T12:33:07;0.70;99.90
34147;DHT22;20423;49.448;9.056;2023-11-25T12:35:35;0.70;99.90
34147;DHT22;20423;49.448;9.056;2023-11-25T12:38:01;0.70;99.90
34147;DHT22;20423;49.448;9.056;2023-11-25T12:40:34;0.80;99.90
34147;DHT22;20423;49.448;9.056;2023-11-25T12:43:01;0.80;99.90
34147;DHT22;20423;49.448;9.056;2023-11-25T12:45:35;0.90;99.90
34147;DHT22;20423;49.448;9.056;2023-11-25T12:48:03;0.90;99.90
34147;DHT22;20423;49.448;9.056;2023-11-25T12:50:30;0.90;99.90
34147;DHT22;20423;49.448;9.056;2023-11-25T12:53:10;0.80;99.90
34147;DHT22;20423;49.448;9.056;2023-11-25T12:55:45;0.70;99.90
34147;DHT22;20423;49.448;9.056;2023-11-25T12:58:18;0.70;99.90
34147;DHT22;20423;49.448;9.056;2023-11-25T13:00:55;0.70;99.90
34147;DHT22;20423;49.448;9.056;2023-11-25T13:03:30;0.70;99.90
34147;DHT22;20423;49.448;9.056;2023-11-25T13:06:03;0.70;99.90
34147;DHT22;20423;49.448;9.056;2023-11-25T13:08:37;0.70;99.90
34147;DHT22;20423;49.448;9.056;2023-11-25T13:11:04;0.70;99.90
34147;DHT22;20423;49.448;9.056;2023-11-25T13:13:32;0.60;99.90
34147;DHT22;20423;49.448;9.056;2023-11-25T13:15:59;0.70;99.90
34147;DHT22;20423;49.448;9.056;2023-11-25T13:18:25;0.70;99.90
34147;DHT22;20423;49.448;9.056;2023-11-25T13:20:55;0.80;99.90
34147;DHT22;20423;49.448;9.056;2023-11-25T13:23:21;0.80;99.90
34147;DHT22;20423;49.448;9.056;2023-11-25T13:25:50;0.80;99.90
34147;DHT22;20423;49.448;9.056;2023-11-25T13:28:19;0.80;99.90
34147;DHT22;20423;49.448;9.056;2023-11-25T13:30:45;0.80;99.90
34147;DHT22;20423;49.448;9.056;2023-11-25T13:33:12;0.90;99.90
34147;DHT22;20423;49.448;9.056;2023-11-25T13:35:40;0.90;99.90
34147;DHT22;20423;49.448;9.056;2023-11-25T13:38:08;0.90;99.90
34147;DHT22;20423;49.448;9.056;2023-11-25T13:40:35;0.90;99.90
34147;DHT22;20423;49.448;9.056;2023-11-25T13:45:30;1.00;99.90
34147;DHT22;20423;49.448;9.056;2023-11-25T13:48:18;1.00;99.90
34147;DHT22;20423;49.448;9.056;2023-11-25T13:50:44;1.00;99.90
34147;DHT22;20423;49.448;9.056;2023-11-25T13:53:19;1.00;99.90
34147;DHT22;20423;49.448;9.056;2023-11-25T13:55:48;1.00;99.90
34147;DHT22;20423;49.448;9.056;2023-11-25T13:58:14;1.00;99.90
34147;DHT22;20423;49.448;9.056;2023-11-25T14:00:43;1.10;99.90
34147;DHT22;20423;49.448;9.056;2023-11-25T14:03:09;1.00;99.90
34147;DHT22;20423;49.448;9.056;2023-11-25T14:05:39;1.10;99.90
34147;DHT22;20423;49.448;9.056;2023-11-25T14:08:09;1.10;99.90
34147;DHT22;20423;49.448;9.056;2023-11-25T14:10:35;1.10;99.90
34147;DHT22;20423;49.448;9.056;2023-11-25T14:13:04;1.10;99.90
34147;DHT22;20423;49.448;9.056;2023-11-25T14:15:31;1.10;99.90
34147;DHT22;20423;49.448;9.056;2023-11-25T14:18:00;1.20;99.90
34147;DHT22;20423;49.448;9.056;2023-11-25T14:20:33;1.20;99.90
34147;DHT22;20423;49.448;9.056;2023-11-25T14:23:00;1.20;99.90
34147;DHT22;20423;49.448;9.056;2023-11-25T14:25:26;1.20;99.90
34147;DHT22;20423;49.448;9.056;2023-11-25T14:27:51;1.10;99.90
34147;DHT22;20423;49.448;9.056;2023-11-25T14:30:27;1.10;99.90
34147;DHT22;20423;49.448;9.056;2023-11-25T14:33:01;1.20;99.90
34147;DHT22;20423;49.448;9.056;2023-11-25T14:35:28;1.20;99.90
34147;DHT22;20423;49.448;9.056;2023-11-25T14:38:06;1.20;99.90
34147;DHT22;20423;49.448;9.056;2023-11-25T14:40:54;1.30;99.90
34147;DHT22;20423;49.448;9.056;2023-11-25T14:43:20;1.20;99.90
34147;DHT22;20423;49.448;9.056;2023-11-25T14:45:45;1.20;99.90
34147;DHT22;20423;49.448;9.056;2023-11-25T14:48:18;1.30;99.90
34147;DHT22;20423;49.448;9.056;2023-11-25T14:50:44;1.20;99.90
34147;DHT22;20423;49.448;9.056;2023-11-25T14:53:10;1.20;99.90
34147;DHT22;20423;49.448;9.056;2023-11-25T14:55:37;1.30;99.90
34147;DHT22;20423;49.448;9.056;2023-11-25T14:58:03;1.30;99.90
34147;DHT22;20423;49.448;9.056;2023-11-25T15:00:28;1.30;99.90
34147;DHT22;20423;49.448;9.056;2023-11-25T15:02:55;1.30;99.90
34147;DHT22;20423;49.448;9.056;2023-11-25T15:05:23;1.30;99.90
34147;DHT22;20423;49.448;9.056;2023-11-25T15:07:49;1.30;99.90
34147;DHT22;20423;49.448;9.056;2023-11-25T15:10:14;1.30;99.90
34147;DHT22;20423;49.448;9.056;2023-11-25T15:12:40;1.30;99.90
34147;DHT22;20423;49.448;9.056;2023-11-25T15:18:29;1.40;99.90
34147;DHT22;20423;49.448;9.056;2023-11-25T15:20:55;1.40;99.90
34147;DHT22;20423;49.448;9.056;2023-11-25T15:23:22;1.30;99.90
34147;DHT22;20423;49.448;9.056;2023-11-25T15:25:48;1.40;99.90
34147;DHT22;20423;49.448;9.056;2023-11-25T15:28:14;1.40;99.90
34147;DHT22;20423;49.448;9.056;2023-11-25T15:30:41;1.40;99.90
34147;DHT22;20423;49.448;9.056;2023-11-25T15:33:07;1.40;99.90
34147;DHT22;20423;49.448;9.056;2023-11-25T15:35:34;1.40;99.90
34147;DHT22;20423;49.448;9.056;2023-11-25T15:37:59;1.40;99.90
34147;DHT22;20423;49.448;9.056;2023-11-25T15:40:25;1.40;99.90
34147;DHT22;20423;49.448;9.056;2023-11-25T15:42:51;1.40;99.90
34147;DHT22;20423;49.448;9.056;2023-11-25T15:45:17;1.40;99.90
34147;DHT22;20423;49.448;9.056;2023-11-25T15:47:43;1.40;99.90
34147;DHT22;20423;49.448;9.056;2023-11-25T15:50:09;1.40;99.90
34147;DHT22;20423;49.448;9.056;2023-11-25T15:52:35;1.40;99.90
34147;DHT22;20423;49.448;9.056;2023-11-25T15:55:00;1.40;99.90
34147;DHT22;20423;49.448;9.056;2023-11-25T15:57:27;1.40;99.90
34147;DHT22;20423;49.448;9.056;2023-11-25T15:59:52;1.40;99.90
34147;DHT22;20423;49.448;9.056;2023-11-25T16:02:19;1.40;99.90
34147;DHT22;20423;49.448;9.056;2023-11-25T16:04:45;1.40;99.90
34147;DHT22;20423;49.448;9.056;2023-11-25T16:07:14;1.40;99.90